Time;durP1;ratioP1;P1;durP2;ratioP2;P2;SDS_P1;SDS_P2;PMS_P1;PMS_P2;Temp;Humidity;BMP_temperature;BMP_pressure;BME280_temperature;BME280_humidity;BME280_pressure;Samples;Min_cycle;Max_cycle;Signal;HPM_P1;HPM_P2
2023/08/14 00:01:22;;;;;;;2.22;1.60;;;24.70;61.70;;;;;;4877759;28;87415;-91
2023/08/14 00:03:47;;;;;;;1.75;1.50;;;24.70;61.80;;;;;;4876762;28;91574;-91
2023/08/14 00:06:13;;;;;;;2.22;1.60;;;24.70;61.80;;;;;;4879775;28;88541;-91
2023/08/14 00:08:39;;;;;;;4.53;1.92;;;24.70;61.70;;;;;;4878668;28;88124;-91
2023/08/14 00:11:07;;;;;;;2.42;1.67;;;24.60;61.70;;;;;;4876660;28;93623;-91
2023/08/14 00:13:52;;;;;;;1.83;1.48;;;24.70;61.70;;;;;;4876761;28;88021;-92
2023/08/14 00:16:18;;;;;;;1.73;1.60;;;24.60;61.90;;;;;;4877826;28;87710;-89
2023/08/14 00:18:44;;;;;;;2.08;1.50;;;24.60;61.70;;;;;;4877583;28;87529;-91
2023/08/14 00:21:09;;;;;;;1.77;1.52;;;24.60;62.00;;;;;;4876539;28;89448;-91
2023/08/14 00:23:35;;;;;;;3.47;2.08;;;24.60;61.80;;;;;;4879154;28;88327;-92
2023/08/14 00:26:01;;;;;;;2.53;1.40;;;24.60;61.90;;;;;;4877276;28;89294;-90
2023/08/14 00:28:26;;;;;;;2.22;1.80;;;24.70;62.00;;;;;;4877814;28;88295;-91
2023/08/14 00:30:52;;;;;;;3.72;1.58;;;24.60;61.80;;;;;;4877388;28;88209;-90
2023/08/14 00:33:18;;;;;;;3.53;1.67;;;24.60;61.80;;;;;;4876376;28;90909;-89
2023/08/14 00:35:43;;;;;;;2.17;1.80;;;24.60;61.80;;;;;;4877664;28;87335;-91
2023/08/14 00:38:09;;;;;;;2.78;1.70;;;24.60;62.00;;;;;;4878964;28;87105;-91
2023/08/14 00:40:34;;;;;;;3.15;1.90;;;24.60;61.80;;;;;;4878521;28;89757;-90
2023/08/14 00:43:00;;;;;;;1.83;1.55;;;24.60;61.60;;;;;;4876632;28;90471;-90
2023/08/14 00:45:26;;;;;;;1.90;1.50;;;24.60;61.60;;;;;;4879066;28;87950;-92
2023/08/14 00:47:52;;;;;;;2.10;1.48;;;24.60;61.80;;;;;;4876872;28;87516;-91
2023/08/14 00:50:19;;;;;;;2.15;1.73;;;24.60;61.70;;;;;;4879537;28;87191;-92
2023/08/14 00:52:47;;;;;;;1.65;1.55;;;24.60;61.60;;;;;;4875971;28;90544;-90
2023/08/14 00:55:22;;;;;;;2.95;1.60;;;24.60;61.70;;;;;;4875715;28;89898;-91
2023/08/14 00:57:52;;;;;;;3.28;1.73;;;24.60;61.80;;;;;;4878477;28;87611;-92
2023/08/14 01:00:18;;;;;;;2.30;1.80;;;24.60;61.90;;;;;;4877393;28;88234;-90
2023/08/14 01:02:44;;;;;;;2.00;1.58;;;24.60;61.80;;;;;;4876942;28;89625;-90
2023/08/14 01:05:10;;;;;;;1.95;1.63;;;24.60;62.00;;;;;;4876138;28;89558;-91
2023/08/14 01:07:36;;;;;;;2.05;1.80;;;24.60;61.80;;;;;;4876788;28;88293;-90
2023/08/14 01:10:02;;;;;;;2.22;1.70;;;24.50;61.80;;;;;;4878028;28;87262;-90
2023/08/14 01:12:53;;;;;;;1.70;1.60;;;24.60;61.80;;;;;;4876681;28;87076;-90
2023/08/14 01:15:28;;;;;;;1.75;1.52;;;24.50;61.70;;;;;;4875674;28;87800;-91
2023/08/14 01:18:01;;;;;;;2.40;1.70;;;24.50;61.90;;;;;;4907530;28;88794;-92
2023/08/14 01:20:29;;;;;;;1.33;1.20;;;24.50;61.60;;;;;;4877092;28;89555;-92
2023/08/14 01:23:09;;;;;;;2.53;1.33;;;24.50;61.90;;;;;;4876251;28;90183;-92
2023/08/14 01:25:37;;;;;;;2.22;1.40;;;24.50;61.80;;;;;;4876343;28;87711;-92
2023/08/14 01:28:05;;;;;;;2.13;1.50;;;24.50;61.80;;;;;;4860844;28;87261;-91
2023/08/14 01:30:31;;;;;;;2.22;1.80;;;24.50;61.80;;;;;;4877382;28;88392;-91
2023/08/14 01:32:57;;;;;;;1.60;1.50;;;24.50;61.80;;;;;;4876277;28;89341;-88
2023/08/14 01:35:30;;;;;;;1.77;1.50;;;24.50;61.90;;;;;;4878831;28;87198;-91
2023/08/14 01:38:01;;;;;;;2.25;1.33;;;24.50;61.90;;;;;;4875980;28;87210;-91
2023/08/14 01:40:44;;;;;;;2.83;1.48;;;24.50;61.90;;;;;;4892131;28;89698;-91
2023/08/14 01:43:31;;;;;;;1.98;1.23;;;24.50;61.90;;;;;;4906699;28;91397;-91
2023/08/14 01:45:58;;;;;;;3.03;1.60;;;24.50;61.80;;;;;;4876652;28;91306;-91
2023/08/14 01:48:25;;;;;;;2.35;1.63;;;24.50;61.30;;;;;;4875871;28;88600;-90
2023/08/14 01:50:53;;;;;;;2.53;1.63;;;24.50;61.40;;;;;;4875651;28;87491;-92
2023/08/14 01:53:19;;;;;;;1.98;1.38;;;24.50;61.30;;;;;;4891625;28;91109;-92
2023/08/14 01:55:45;;;;;;;2.58;1.50;;;24.50;61.20;;;;;;4875517;28;87920;-91
2023/08/14 01:58:10;;;;;;;1.65;1.30;;;24.50;61.20;;;;;;4877663;28;87845;-92
2023/08/14 02:00:37;;;;;;;1.45;1.20;;;24.50;61.50;;;;;;4876596;28;89127;-91
2023/08/14 02:03:03;;;;;;;2.33;1.45;;;24.50;61.40;;;;;;4891700;28;89387;-92
2023/08/14 02:05:29;;;;;;;1.40;1.30;;;24.50;61.40;;;;;;4873921;28;90714;-92
2023/08/14 02:07:55;;;;;;;1.83;1.35;;;24.50;61.30;;;;;;4874365;28;88506;-90
2023/08/14 02:10:21;;;;;;;2.42;1.50;;;24.40;61.30;;;;;;4876014;28;87387;-91
2023/08/14 02:12:47;;;;;;;1.42;1.33;;;24.40;61.20;;;;;;4876042;28;87536;-91
2023/08/14 02:15:12;;;;;;;1.52;1.40;;;24.40;61.30;;;;;;4874505;28;90043;-92
2023/08/14 02:17:38;;;;;;;3.35;1.77;;;24.40;61.30;;;;;;4876129;28;87390;-91
2023/08/14 02:20:04;;;;;;;2.20;1.35;;;24.40;61.30;;;;;;4875169;28;87314;-90
2023/08/14 02:22:30;;;;;;;2.33;1.40;;;24.40;61.30;;;;;;4876480;28;87943;-90
2023/08/14 02:24:56;;;;;;;2.25;1.40;;;24.40;61.40;;;;;;4874820;28;88697;-91
2023/08/14 02:27:22;;;;;;;2.22;1.58;;;24.40;61.50;;;;;;4873536;28;87469;-91
2023/08/14 02:29:47;;;;;;;2.65;1.50;;;24.40;61.40;;;;;;4907605;28;87123;-90
2023/08/14 02:32:13;;;;;;;4.07;1.38;;;24.40;61.50;;;;;;4875246;28;88781;-91
2023/08/14 02:34:44;;;;;;;1.80;1.42;;;24.40;61.60;;;;;;4873323;28;89873;-90
2023/08/14 02:37:14;;;;;;;2.03;1.70;;;24.40;61.60;;;;;;4906918;28;87752;-90
2023/08/14 02:39:40;;;;;;;2.53;1.60;;;24.40;61.60;;;;;;4874168;28;87817;-90
2023/08/14 02:42:06;;;;;;;2.00;1.30;;;24.40;61.50;;;;;;4873563;28;90653;-90
2023/08/14 02:44:32;;;;;;;2.40;1.60;;;24.40;61.60;;;;;;4874952;28;88205;-90
2023/08/14 02:46:58;;;;;;;5.10;1.80;;;24.40;61.50;;;;;;4874781;28;87677;-90
2023/08/14 02:49:24;;;;;;;1.45;1.30;;;24.40;61.60;;;;;;4873802;28;89666;-91
2023/08/14 02:51:50;;;;;;;1.67;1.38;;;24.30;61.60;;;;;;4874972;28;90461;-90
2023/08/14 02:54:16;;;;;;;1.40;1.25;;;24.40;61.70;;;;;;4874108;28;90062;-91
2023/08/14 02:56:42;;;;;;;1.70;1.60;;;24.40;61.40;;;;;;4876981;28;88304;-91
2023/08/14 02:59:07;;;;;;;1.75;1.33;;;24.30;61.60;;;;;;4874941;28;87772;-91
2023/08/14 03:01:33;;;;;;;1.90;1.55;;;24.30;61.60;;;;;;4874180;28;87940;-91
2023/08/14 03:03:59;;;;;;;1.75;1.13;;;24.30;61.80;;;;;;4873709;28;90580;-91
2023/08/14 03:06:24;;;;;;;1.50;1.40;;;24.30;61.40;;;;;;4875896;28;87838;-91
2023/08/14 03:08:52;;;;;;;1.20;1.10;;;24.30;61.90;;;;;;4872868;28;89049;-91
2023/08/14 03:11:17;;;;;;;1.65;1.17;;;24.30;61.60;;;;;;4875035;28;87996;-92
2023/08/14 03:13:43;;;;;;;1.50;1.38;;;24.30;61.80;;;;;;4872809;28;89171;-91
2023/08/14 03:16:09;;;;;;;1.65;1.40;;;24.30;61.70;;;;;;4872241;28;87569;-92
2023/08/14 03:18:34;;;;;;;1.63;1.38;;;24.30;61.60;;;;;;4874082;28;87549;-90
2023/08/14 03:21:00;;;;;;;1.95;1.20;;;24.30;61.70;;;;;;4872782;28;92049;-91
2023/08/14 03:23:25;;;;;;;2.42;1.65;;;24.30;61.80;;;;;;4873222;28;90235;-91
2023/08/14 03:25:51;;;;;;;1.80;1.15;;;24.30;61.70;;;;;;4873980;28;87387;-89
2023/08/14 03:28:17;;;;;;;2.45;1.20;;;24.30;61.80;;;;;;4874713;28;88445;-91
2023/08/14 03:30:43;;;;;;;1.45;1.10;;;24.30;61.80;;;;;;4876539;28;90561;-93
2023/08/14 03:33:09;;;;;;;1.13;1.02;;;24.30;61.70;;;;;;4878133;28;87506;-90
2023/08/14 03:35:35;;;;;;;1.30;1.20;;;24.30;61.40;;;;;;4878493;28;88332;-91
2023/08/14 03:38:01;;;;;;;1.50;1.40;;;24.30;61.70;;;;;;4877849;28;86838;-91
2023/08/14 03:40:27;;;;;;;2.45;1.23;;;24.20;61.60;;;;;;4874632;28;90076;-92
2023/08/14 03:42:52;;;;;;;1.42;1.33;;;24.30;61.90;;;;;;4907191;28;90281;-92
2023/08/14 03:45:18;;;;;;;1.30;1.08;;;24.20;61.90;;;;;;4877186;28;88339;-91
2023/08/14 03:47:44;;;;;;;1.95;1.35;;;24.20;61.60;;;;;;4876757;28;88866;-90
2023/08/14 03:50:12;;;;;;;2.40;1.20;;;24.20;61.60;;;;;;4875547;28;90073;-90
2023/08/14 03:52:38;;;;;;;1.55;1.23;;;24.20;61.60;;;;;;4875018;28;89948;-91
2023/08/14 03:55:04;;;;;;;1.67;1.33;;;24.20;61.60;;;;;;4876689;28;88249;-90
2023/08/14 03:57:30;;;;;;;1.63;1.08;;;24.20;61.60;;;;;;4877280;28;87217;-91
2023/08/14 03:59:55;;;;;;;1.20;1.10;;;24.20;61.70;;;;;;4877311;28;89197;-90
2023/08/14 04:02:21;;;;;;;2.05;1.35;;;24.20;61.80;;;;;;4878404;28;87979;-92
2023/08/14 04:04:47;;;;;;;1.10;1.00;;;24.20;61.80;;;;;;4875650;28;87029;-91
2023/08/14 04:07:12;;;;;;;2.15;1.48;;;24.20;61.80;;;;;;4877949;28;88154;-91
2023/08/14 04:09:38;;;;;;;2.13;1.50;;;24.20;61.80;;;;;;4877146;28;89007;-90
2023/08/14 04:12:04;;;;;;;1.77;1.27;;;24.20;62.00;;;;;;4877898;28;88687;-92
2023/08/14 04:14:30;;;;;;;1.38;1.10;;;24.20;61.80;;;;;;4877120;28;87693;-91
2023/08/14 04:16:56;;;;;;;1.10;1.00;;;24.20;61.70;;;;;;4876840;28;90014;-91
2023/08/14 04:19:22;;;;;;;1.90;1.58;;;24.20;61.80;;;;;;4875125;28;91015;-92
2023/08/14 04:21:48;;;;;;;2.15;1.38;;;24.20;61.90;;;;;;4876673;28;90379;-91
2023/08/14 04:24:13;;;;;;;1.60;1.20;;;24.20;61.90;;;;;;4877038;28;87480;-92
2023/08/14 04:26:39;;;;;;;2.28;1.23;;;24.10;61.90;;;;;;4878827;28;87575;-91
2023/08/14 04:29:09;;;;;;;1.45;1.27;;;24.10;62.00;;;;;;4907543;28;91244;-91
2023/08/14 04:31:36;;;;;;;1.88;1.13;;;24.20;61.90;;;;;;4907248;28;89390;-92
2023/08/14 04:34:02;;;;;;;1.50;1.27;;;24.20;61.80;;;;;;4874617;28;89201;-92
2023/08/14 04:36:31;;;;;;;1.20;1.10;;;24.20;61.80;;;;;;4875445;28;87298;-92
2023/08/14 04:38:56;;;;;;;1.37;1.20;;;24.10;61.90;;;;;;4878812;28;88681;-91
2023/08/14 04:41:25;;;;;;;1.30;1.20;;;24.10;61.90;;;;;;4874223;28;89016;-91
2023/08/14 04:43:51;;;;;;;1.23;1.13;;;24.20;61.90;;;;;;4875526;28;87790;-90
2023/08/14 04:46:30;;;;;;;1.52;1.25;;;24.10;61.80;;;;;;4874714;28;88299;-91
2023/08/14 04:48:56;;;;;;;1.90;1.30;;;24.10;61.80;;;;;;4874607;28;90684;-92
2023/08/14 04:51:22;;;;;;;1.83;1.48;;;24.10;62.00;;;;;;4877134;28;87746;-90
2023/08/14 04:53:47;;;;;;;1.92;1.50;;;24.10;61.80;;;;;;4876825;28;87015;-91
2023/08/14 04:56:13;;;;;;;1.92;1.20;;;24.10;61.50;;;;;;4874684;28;89336;-91
2023/08/14 04:58:39;;;;;;;1.20;1.10;;;24.10;61.80;;;;;;4875238;28;88392;-90
2023/08/14 05:01:04;;;;;;;1.67;1.33;;;24.10;61.50;;;;;;4877818;28;87499;-89
2023/08/14 05:03:30;;;;;;;1.23;1.13;;;24.20;61.60;;;;;;4877255;28;87328;-91
2023/08/14 05:05:56;;;;;;;1.40;1.30;;;24.20;61.60;;;;;;4909830;28;89689;-91
2023/08/14 05:08:21;;;;;;;1.60;1.30;;;24.20;61.80;;;;;;4875322;28;88469;-91
2023/08/14 05:10:51;;;;;;;1.02;1.02;;;24.20;61.80;;;;;;4907762;28;90456;-91
2023/08/14 05:13:18;;;;;;;1.33;1.20;;;24.20;61.70;;;;;;4876667;28;87618;-90
2023/08/14 05:15:46;;;;;;;2.03;1.55;;;24.20;61.60;;;;;;4874833;28;88189;-92
2023/08/14 05:18:11;;;;;;;1.98;1.30;;;24.20;61.80;;;;;;4874959;28;91014;-92
2023/08/14 05:20:37;;;;;;;1.20;1.05;;;24.20;61.70;;;;;;4876104;28;88528;-91
2023/08/14 05:23:03;;;;;;;1.92;1.70;;;24.30;61.70;;;;;;4873978;28;88716;-91
2023/08/14 05:25:29;;;;;;;2.22;1.20;;;24.20;61.80;;;;;;4875899;28;87173;-91
2023/08/14 05:27:54;;;;;;;2.20;1.10;;;24.20;61.80;;;;;;4875992;28;91818;-92
2023/08/14 05:30:20;;;;;;;1.50;1.00;;;24.20;61.80;;;;;;4876336;28;87308;-92
2023/08/14 05:32:47;;;;;;;1.35;1.25;;;24.20;61.80;;;;;;4876905;28;87213;-92
2023/08/14 05:35:13;;;;;;;1.60;1.27;;;24.20;61.80;;;;;;4875620;28;86987;-91
2023/08/14 05:37:42;;;;;;;1.50;1.10;;;24.20;61.80;;;;;;4876596;28;87933;-91
2023/08/14 05:40:08;;;;;;;1.48;1.38;;;24.20;61.70;;;;;;4874447;28;88415;-90
2023/08/14 05:42:34;;;;;;;1.98;1.20;;;24.20;61.90;;;;;;4874087;28;87602;-92
2023/08/14 05:44:59;;;;;;;1.25;1.08;;;24.20;61.90;;;;;;4876755;28;87975;-91
2023/08/14 05:47:25;;;;;;;1.88;1.40;;;24.20;61.70;;;;;;4876264;28;88851;-91
2023/08/14 05:49:51;;;;;;;1.80;1.23;;;24.20;61.60;;;;;;4875936;28;87664;-91
2023/08/14 05:52:16;;;;;;;1.20;1.10;;;24.20;61.90;;;;;;4875494;28;87839;-90
2023/08/14 05:54:42;;;;;;;1.20;1.10;;;24.10;61.70;;;;;;4874680;28;87619;-90
2023/08/14 05:57:09;;;;;;;2.45;1.40;;;24.10;61.70;;;;;;4871250;28;87707;-92
2023/08/14 05:59:35;;;;;;;1.10;1.00;;;24.20;61.60;;;;;;4872312;28;89345;-90
2023/08/14 06:02:00;;;;;;;1.10;1.00;;;24.20;61.80;;;;;;4873618;28;87689;-90
2023/08/14 06:04:26;;;;;;;2.50;1.38;;;24.10;61.50;;;;;;4871710;28;89515;-91
2023/08/14 06:06:53;;;;;;;1.58;1.23;;;24.10;61.50;;;;;;4876546;28;88688;-90
2023/08/14 06:09:19;;;;;;;4.55;1.55;;;24.20;61.20;;;;;;4870952;28;90678;-87
2023/08/14 06:11:45;;;;;;;3.17;1.52;;;24.30;60.40;;;;;;4877215;28;88812;-91
2023/08/14 06:14:11;;;;;;;2.70;1.70;;;24.40;60.70;;;;;;4877689;28;86943;-90
2023/08/14 06:16:36;;;;;;;4.63;2.00;;;24.40;60.80;;;;;;4880252;28;91746;-96
2023/08/14 06:19:02;;;;;;;5.70;2.13;;;24.40;59.90;;;;;;4880103;28;87886;-91
2023/08/14 06:21:27;;;;;;;8.63;2.20;;;24.40;59.80;;;;;;4881524;28;87379;-92
2023/08/14 06:23:53;;;;;;;8.63;3.08;;;24.50;59.70;;;;;;4882162;28;87516;-88
2023/08/14 06:26:19;;;;;;;120.57;22.75;;;24.50;59.70;;;;;;4873871;28;88072;-89
2023/08/14 06:28:44;;;;;;;60.20;14.63;;;24.40;59.20;;;;;;4870563;28;89968;-89
2023/08/14 06:31:10;;;;;;;54.85;12.45;;;24.30;59.90;;;;;;4871811;28;87563;-88
2023/08/14 06:33:36;;;;;;;56.60;12.77;;;24.30;60.20;;;;;;4872708;28;87424;-88
2023/08/14 06:36:01;;;;;;;43.55;11.25;;;24.30;59.90;;;;;;4871284;28;88766;-88
2023/08/14 06:38:27;;;;;;;48.35;12.02;;;24.30;61.20;;;;;;4866862;28;89960;-88
2023/08/14 06:40:53;;;;;;;46.67;11.45;;;24.30;61.00;;;;;;4869882;28;88113;-89
2023/08/14 06:43:20;;;;;;;57.33;11.35;;;24.40;61.10;;;;;;4868189;28;89769;-90
2023/08/14 06:45:47;;;;;;;45.92;11.32;;;24.40;60.90;;;;;;4884570;28;92052;-89
2023/08/14 06:48:13;;;;;;;37.53;10.32;;;24.40;61.10;;;;;;4868622;28;89579;-90
2023/08/14 06:50:39;;;;;;;42.17;11.05;;;24.40;60.90;;;;;;4873417;28;87417;-90
2023/08/14 06:53:05;;;;;;;44.97;11.02;;;24.40;62.00;;;;;;4866810;28;87758;-91
2023/08/14 06:55:30;;;;;;;43.97;11.32;;;24.50;61.40;;;;;;4862579;28;88230;-90
2023/08/14 06:57:56;;;;;;;37.75;10.23;;;24.50;61.60;;;;;;4859092;28;90276;-89
2023/08/14 07:00:21;;;;;;;49.53;11.77;;;24.50;61.80;;;;;;4859946;28;88928;-89
2023/08/14 07:02:47;;;;;;;49.28;10.75;;;24.60;61.80;;;;;;4862761;28;87597;-87
2023/08/14 07:05:13;;;;;;;47.55;10.32;;;24.60;61.80;;;;;;4858798;28;90357;-89
2023/08/14 07:07:39;;;;;;;34.67;10.32;;;24.60;61.90;;;;;;4861880;28;88502;-89
2023/08/14 07:10:06;;;;;;;30.48;9.70;;;24.50;62.10;;;;;;4860588;28;88161;-95
2023/08/14 07:12:32;;;;;;;33.92;7.28;;;24.60;62.50;;;;;;4861762;28;88538;-92
2023/08/14 07:15:00;;;;;;;24.73;6.53;;;24.70;60.40;;;;;;4862422;28;88424;-93
2023/08/14 07:17:26;;;;;;;33.67;7.55;;;24.70;60.30;;;;;;4861502;28;88001;-94
2023/08/14 07:19:52;;;;;;;53.15;7.50;;;24.70;61.20;;;;;;4863857;28;87519;-91
2023/08/14 07:22:18;;;;;;;40.30;8.13;;;24.80;61.50;;;;;;4873406;28;87827;-96
2023/08/14 07:24:44;;;;;;;34.03;8.40;;;24.80;61.10;;;;;;4882152;28;90565;-96
2023/08/14 07:27:10;;;;;;;35.00;7.50;;;24.80;61.10;;;;;;4879973;28;88432;-93
2023/08/14 07:29:35;;;;;;;36.92;7.53;;;24.90;61.60;;;;;;4874654;28;87641;-91
2023/08/14 07:32:01;;;;;;;49.42;8.10;;;24.90;61.90;;;;;;4859700;28;89246;-91
2023/08/14 07:34:28;;;;;;;47.13;8.18;;;25.00;62.60;;;;;;4859071;28;89981;-90
2023/08/14 07:36:54;;;;;;;45.63;8.90;;;25.00;62.90;;;;;;4860428;28;87889;-90
2023/08/14 07:39:19;;;;;;;26.35;7.35;;;25.00;62.90;;;;;;4861687;28;88063;-90
2023/08/14 07:41:45;;;;;;;33.10;7.90;;;25.00;63.20;;;;;;4862485;28;87289;-90
2023/08/14 07:44:11;;;;;;;34.67;7.72;;;25.00;63.70;;;;;;4862117;28;88114;-92
2023/08/14 07:46:36;;;;;;;26.80;6.85;;;25.00;64.00;;;;;;4859464;28;90671;-92
2023/08/14 07:49:02;;;;;;;27.23;7.35;;;25.00;62.40;;;;;;4861919;28;88651;-91
2023/08/14 07:51:28;;;;;;;27.55;7.45;;;25.00;62.70;;;;;;4860658;28;88273;-93
2023/08/14 07:53:54;;;;;;;33.30;6.43;;;25.00;62.20;;;;;;4862549;28;88083;-94
2023/08/14 07:56:19;;;;;;;28.00;7.30;;;25.00;62.70;;;;;;4861043;28;87848;-92
2023/08/14 07:58:45;;;;;;;29.55;7.20;;;25.10;62.60;;;;;;4860293;28;88045;-93
2023/08/14 08:01:10;;;;;;;17.80;5.97;;;24.90;62.90;;;;;;4864731;28;91280;-94
2023/08/14 08:03:36;;;;;;;26.67;6.05;;;25.00;62.10;;;;;;4862512;28;90528;-94
2023/08/14 08:06:02;;;;;;;16.30;5.35;;;25.00;62.00;;;;;;4869675;28;90680;-94
2023/08/14 08:08:27;;;;;;;15.80;5.40;;;25.00;61.60;;;;;;4870008;28;87651;-95
2023/08/14 08:10:53;;;;;;;17.38;5.15;;;25.00;61.60;;;;;;4869586;28;87389;-92
2023/08/14 08:13:19;;;;;;;16.75;5.25;;;25.00;61.70;;;;;;4865184;28;89045;-92
2023/08/14 08:15:44;;;;;;;23.75;5.90;;;25.00;61.70;;;;;;4868538;28;89062;-91
2023/08/14 08:18:10;;;;;;;14.60;4.30;;;25.00;61.70;;;;;;4864736;28;87189;-91
2023/08/14 08:20:36;;;;;;;20.10;4.50;;;25.00;61.60;;;;;;4863822;28;89341;-90
2023/08/14 08:23:01;;;;;;;24.98;4.93;;;25.00;61.70;;;;;;4865491;28;88174;-90
2023/08/14 08:25:27;;;;;;;10.80;4.00;;;24.90;61.50;;;;;;4865390;28;88179;-89
2023/08/14 08:27:53;;;;;;;13.32;4.10;;;25.00;60.80;;;;;;4874635;28;87704;-89
2023/08/14 08:30:18;;;;;;;19.70;4.55;;;25.00;60.40;;;;;;4872433;28;88456;-88
2023/08/14 08:32:44;;;;;;;15.85;3.83;;;25.00;60.80;;;;;;4871037;28;89807;-90
2023/08/14 08:35:09;;;;;;;11.57;3.05;;;25.00;60.40;;;;;;4867975;28;90478;-89
2023/08/14 08:37:35;;;;;;;15.25;3.50;;;25.00;60.50;;;;;;4870540;28;88434;-89
2023/08/14 08:40:04;;;;;;;11.43;4.53;;;25.00;60.10;;;;;;4871231;28;87436;-89
2023/08/14 08:42:30;;;;;;;10.35;3.10;;;25.00;60.40;;;;;;4871369;28;95176;-90
2023/08/14 08:45:01;;;;;;;8.15;3.45;;;25.10;60.50;;;;;;4869651;28;90619;-89
2023/08/14 08:47:29;;;;;;;12.20;3.90;;;25.10;60.40;;;;;;4872987;28;87350;-89
2023/08/14 08:49:55;;;;;;;11.35;3.10;;;25.00;60.40;;;;;;4872884;28;87906;-89
2023/08/14 08:52:21;;;;;;;8.35;3.00;;;25.10;60.60;;;;;;4872830;28;88412;-88
2023/08/14 08:54:48;;;;;;;12.32;3.45;;;25.00;60.70;;;;;;4866493;28;90625;-88
2023/08/14 08:57:14;;;;;;;13.98;3.03;;;25.10;59.90;;;;;;4865858;28;87757;-87
2023/08/14 08:59:40;;;;;;;11.10;3.08;;;25.00;60.50;;;;;;4870431;28;90616;-88
2023/08/14 09:02:08;;;;;;;10.18;3.05;;;25.00;60.30;;;;;;4868913;28;91495;-93
2023/08/14 09:04:33;;;;;;;10.32;2.67;;;25.10;59.90;;;;;;4899591;28;91375;-88
2023/08/14 09:06:59;;;;;;;8.73;2.83;;;25.10;59.60;;;;;;4869215;28;88130;-87
2023/08/14 09:09:25;;;;;;;9.70;3.03;;;25.10;59.50;;;;;;4867430;28;89921;-87
2023/08/14 09:11:51;;;;;;;6.07;2.42;;;25.10;59.30;;;;;;4867702;28;89167;-88
2023/08/14 09:14:17;;;;;;;6.68;2.30;;;25.00;59.20;;;;;;4868450;28;90525;-88
2023/08/14 09:16:44;;;;;;;7.40;2.17;;;25.00;59.20;;;;;;4868542;28;87559;-88
2023/08/14 09:19:14;;;;;;;8.07;2.47;;;25.00;59.20;;;;;;4869987;28;87555;-88
2023/08/14 09:21:43;;;;;;;9.48;2.58;;;25.00;59.30;;;;;;4866042;28;90790;-88
2023/08/14 09:24:11;;;;;;;6.15;2.15;;;25.00;59.20;;;;;;4865773;28;89469;-88
2023/08/14 09:26:37;;;;;;;5.40;2.17;;;24.90;59.20;;;;;;4866753;28;88670;-89
2023/08/14 09:29:04;;;;;;;8.20;2.47;;;24.90;59.30;;;;;;4869042;28;87946;-87
2023/08/14 09:31:31;;;;;;;4.88;2.20;;;24.90;59.20;;;;;;4867882;28;91048;-88
2023/08/14 09:33:57;;;;;;;7.10;2.17;;;24.90;59.20;;;;;;4867799;28;87859;-87
2023/08/14 09:36:23;;;;;;;6.07;2.22;;;24.90;58.90;;;;;;4866124;28;88133;-87
2023/08/14 09:38:51;;;;;;;6.43;2.17;;;25.00;58.80;;;;;;4870860;28;87242;-89
2023/08/14 09:41:19;;;;;;;4.65;1.83;;;25.00;59.00;;;;;;4868617;28;88107;-89
2023/08/14 09:43:45;;;;;;;5.80;2.05;;;25.20;59.10;;;;;;4869469;28;90064;-90
2023/08/14 09:46:14;;;;;;;5.32;2.40;;;25.20;59.40;;;;;;4870851;28;87742;-90
2023/08/14 09:48:44;;;;;;;5.23;2.33;;;25.20;59.20;;;;;;4868907;28;87190;-89
2023/08/14 09:51:15;;;;;;;10.48;2.45;;;25.10;58.00;;;;;;4867464;28;91324;-88
2023/08/14 09:53:46;;;;;;;10.45;2.28;;;25.10;58.80;;;;;;4870345;28;87855;-90
2023/08/14 09:56:13;;;;;;;5.32;2.03;;;25.10;59.20;;;;;;4899818;28;87473;-90
2023/08/14 09:58:39;;;;;;;4.60;2.53;;;25.10;58.80;;;;;;4866713;28;89197;-88
2023/08/14 10:01:06;;;;;;;8.85;2.25;;;25.10;59.10;;;;;;4863718;28;91330;-93
2023/08/14 10:03:34;;;;;;;12.90;2.85;;;25.20;59.40;;;;;;4865788;28;88385;-91
2023/08/14 10:06:02;;;;;;;7.32;2.40;;;25.10;59.40;;;;;;4865718;28;88018;-91
2023/08/14 10:08:32;;;;;;;5.93;1.88;;;25.10;59.60;;;;;;4866929;28;89512;-92
2023/08/14 10:10:59;;;;;;;6.97;2.20;;;25.00;60.20;;;;;;4864042;28;90479;-91
2023/08/14 10:13:25;;;;;;;8.05;2.42;;;25.00;59.80;;;;;;4865761;28;88287;-92
2023/08/14 10:15:55;;;;;;;12.48;2.33;;;25.00;60.10;;;;;;4864984;28;88272;-91
2023/08/14 10:18:23;;;;;;;13.95;2.65;;;25.00;60.50;;;;;;4865649;28;87869;-92
2023/08/14 10:20:51;;;;;;;9.23;1.95;;;25.00;60.20;;;;;;4865991;28;91475;-94
2023/08/14 10:23:18;;;;;;;11.57;2.70;;;25.10;60.40;;;;;;4865718;28;87815;-93
2023/08/14 10:25:47;;;;;;;11.35;2.70;;;25.20;60.30;;;;;;4862545;28;87556;-88
2023/08/14 10:28:13;;;;;;;;;;;25.30;60.50;;;;;;4862520;28;87950;-89
2023/08/14 10:30:39;;;;;;;10.73;2.47;;;25.20;60.40;;;;;;4865051;28;88341;-88
2023/08/14 10:33:05;;;;;;;19.15;2.65;;;25.30;60.70;;;;;;4863477;28;87837;-89
2023/08/14 10:35:58;;;;;;;10.55;2.63;;;25.20;60.90;;;;;;4862602;28;87262;-88
2023/08/14 10:38:46;;;;;;;12.00;2.45;;;25.30;61.00;;;;;;4862495;28;88001;-88
2023/08/14 10:41:13;;;;;;;9.20;2.67;;;25.30;61.00;;;;;;4877067;28;91914;-88
2023/08/14 10:43:39;;;;;;;14.10;2.20;;;25.30;61.10;;;;;;4860773;28;91554;-88
2023/08/14 10:46:09;;;;;;;10.60;3.00;;;25.30;61.60;;;;;;4862511;28;87850;-88
2023/08/14 10:48:38;;;;;;;9.98;2.55;;;25.30;60.90;;;;;;4864617;28;87346;-88
2023/08/14 10:51:09;;;;;;;14.13;2.65;;;25.30;61.80;;;;;;4899870;28;88132;-86
2023/08/14 10:53:36;;;;;;;11.80;2.83;;;25.30;61.30;;;;;;4864220;28;91935;-87
2023/08/14 10:56:03;;;;;;;8.27;2.53;;;25.30;61.80;;;;;;4867174;28;87319;-86
2023/08/14 10:58:32;;;;;;;9.57;2.00;;;25.30;61.90;;;;;;4867802;28;87144;-87
2023/08/14 11:00:59;;;;;;;24.52;3.33;;;25.40;61.60;;;;;;4867564;28;88296;-87
2023/08/14 11:03:25;;;;;;;8.05;2.17;;;25.50;61.70;;;;;;4866550;28;87608;-86
2023/08/14 11:05:51;;;;;;;8.38;2.38;;;25.40;61.70;;;;;;4866932;28;88264;-85
2023/08/14 11:08:17;;;;;;;8.75;2.42;;;25.50;61.70;;;;;;4867021;28;87959;-85
2023/08/14 11:10:44;;;;;;;10.52;2.25;;;25.60;61.40;;;;;;4866899;28;88387;-85
2023/08/14 11:13:10;;;;;;;8.93;2.75;;;25.60;61.10;;;;;;4866850;28;87407;-85
2023/08/14 11:15:38;;;;;;;10.32;2.90;;;25.70;60.90;;;;;;4865508;28;87635;-85
2023/08/14 11:18:05;;;;;;;11.93;2.45;;;25.80;60.40;;;;;;4866468;28;87433;-86
2023/08/14 11:20:32;;;;;;;10.93;2.17;;;25.80;60.50;;;;;;4867222;28;91208;-87
2023/08/14 11:22:59;;;;;;;13.00;2.75;;;25.80;60.60;;;;;;4867169;28;87826;-85
2023/08/14 11:25:25;;;;;;;8.30;2.17;;;25.90;60.60;;;;;;4866234;28;88329;-85
2023/08/14 11:27:53;;;;;;;9.30;2.45;;;26.00;60.40;;;;;;4866898;28;87678;-84
2023/08/14 11:30:20;;;;;;;12.32;3.20;;;25.90;60.10;;;;;;4866192;28;89631;-85
2023/08/14 11:32:46;;;;;;;10.75;2.50;;;26.00;60.00;;;;;;4864934;28;90235;-85
2023/08/14 11:35:12;;;;;;;10.82;2.13;;;26.00;59.70;;;;;;4866304;28;87801;-86
2023/08/14 11:37:38;;;;;;;6.82;2.08;;;26.00;59.70;;;;;;4868120;28;87766;-86
2023/08/14 11:40:09;;;;;;;6.95;2.67;;;26.00;59.90;;;;;;4869110;28;91223;-93
2023/08/14 11:42:35;;;;;;;8.23;2.55;;;26.00;59.60;;;;;;4868600;28;89866;-91
2023/08/14 11:45:05;;;;;;;11.95;2.40;;;26.00;59.20;;;;;;4868801;28;87758;-89
2023/08/14 11:47:32;;;;;;;5.40;2.33;;;26.00;59.20;;;;;;4869034;28;91928;-90
2023/08/14 11:49:58;;;;;;;8.57;2.03;;;26.00;59.00;;;;;;4865372;28;88989;-90
2023/08/14 11:52:28;;;;;;;5.32;2.47;;;26.00;58.80;;;;;;4869763;28;87650;-91
2023/08/14 11:54:55;;;;;;;5.38;1.98;;;26.00;58.70;;;;;;4868652;28;88567;-88
2023/08/14 11:57:30;;;;;;;6.30;2.45;;;26.00;58.60;;;;;;4868718;28;87858;-89
2023/08/14 11:59:57;;;;;;;5.22;2.20;;;26.00;58.70;;;;;;4899992;28;90458;-90
2023/08/14 12:02:24;;;;;;;10.85;2.85;;;26.00;58.40;;;;;;4866911;28;90065;-90
2023/08/14 12:04:59;;;;;;;9.35;2.65;;;26.00;58.40;;;;;;4869504;28;87858;-88
2023/08/14 12:07:26;;;;;;;8.77;3.13;;;26.00;58.40;;;;;;4899376;28;89636;-89
2023/08/14 12:09:56;;;;;;;15.20;2.40;;;26.00;58.20;;;;;;4868578;28;90919;-90
2023/08/14 12:12:22;;;;;;;7.65;2.47;;;26.00;58.20;;;;;;4884018;28;90710;-92
2023/08/14 12:14:50;;;;;;;8.50;2.03;;;26.00;58.10;;;;;;4869908;28;87751;-91
2023/08/14 12:17:18;;;;;;;8.02;3.03;;;26.00;58.10;;;;;;4870889;28;87511;-92
2023/08/14 12:19:57;;;;;;;10.63;2.83;;;25.90;58.20;;;;;;4867541;28;91438;-91
2023/08/14 12:22:25;;;;;;;7.28;2.33;;;25.90;58.00;;;;;;4870048;28;91274;-91
2023/08/14 12:24:52;;;;;;;7.32;2.40;;;25.80;58.20;;;;;;4869117;28;87336;-90
2023/08/14 12:27:26;;;;;;;9.02;2.40;;;25.90;58.30;;;;;;4870968;28;87251;-87
2023/08/14 12:29:54;;;;;;;10.05;2.90;;;25.90;58.70;;;;;;4871491;28;90707;-90
2023/08/14 12:32:21;;;;;;;6.00;2.30;;;25.90;58.20;;;;;;4870184;28;88734;-91
2023/08/14 12:34:47;;;;;;;5.97;2.38;;;25.90;58.30;;;;;;4869981;28;87503;-92
2023/08/14 12:37:16;;;;;;;8.70;2.58;;;25.90;58.00;;;;;;4870098;28;87413;-90
2023/08/14 12:39:50;;;;;;;6.60;2.58;;;25.90;58.00;;;;;;4868756;28;87707;-90
2023/08/14 12:42:16;;;;;;;5.78;2.10;;;25.90;58.00;;;;;;4901349;28;90548;-91